Halesworth, United Kingdom
Current Conditions -  °F | °C
As of 7:50 PM on Friday 31 Oct 2014 (Local Time) from EGSD Reporting Station
Clear Clear  
Wind Chill: 17°   Ceiling: Unl
Heat Index: 17°   Visibility: 6mi
Dew Point: 14°   Wind: 8mph
Humidity: 82%   Direction: 190°S
Pressure: 29.97"   Gusts: NA
Location:  52.35°N, 1.5°E
Report Text: EGSD 311950Z 19007KT CAVOK 17/14 Q1015
Loading
Personal Weather Stations






























Interactive Weather Map
Tropical Storm Tracking
New forecast layout! Learn more

10-Day Weather Forecast

Advertisements
Track Severe Weather on mobile